sensor_id;sensor_type;location;lat;lon;timestamp;pressure;altitude;pressure_sealevel;temperature;humidity
61769;BME280;47669;48.712;9.016;2023-11-19T00:00:48;96601.56;;;6.70;100.00
61769;BME280;47669;48.712;9.016;2023-11-19T00:03:14;96608.03;;;6.67;100.00
61769;BME280;47669;48.712;9.016;2023-11-19T00:05:39;96602.84;;;6.74;100.00
61769;BME280;47669;48.712;9.016;2023-11-19T00:08:04;96580.28;;;6.80;100.00
61769;BME280;47669;48.712;9.016;2023-11-19T00:10:31;96580.06;;;6.81;100.00
61769;BME280;47669;48.712;9.016;2023-11-19T00:12:56;96573.56;;;6.77;100.00
61769;BME280;47669;48.712;9.016;2023-11-19T00:15:22;96566.69;;;6.76;100.00
61769;BME280;47669;48.712;9.016;2023-11-19T00:17:49;96560.44;;;6.77;100.00
61769;BME280;47669;48.712;9.016;2023-11-19T00:20:18;96568.53;;;6.76;100.00
61769;BME280;47669;48.712;9.016;2023-11-19T00:22:44;96561.06;;;6.79;100.00
61769;BME280;47669;48.712;9.016;2023-11-19T00:25:12;96562.75;;;6.87;100.00
61769;BME280;47669;48.712;9.016;2023-11-19T00:27:37;96571.66;;;6.86;100.00
61769;BME280;47669;48.712;9.016;2023-11-19T00:30:04;96573.72;;;6.90;100.00
61769;BME280;47669;48.712;9.016;2023-11-19T00:32:31;96560.59;;;6.90;100.00
61769;BME280;47669;48.712;9.016;2023-11-19T00:34:57;96548.72;;;6.95;100.00
61769;BME280;47669;48.712;9.016;2023-11-19T00:37:22;96553.56;;;6.98;100.00
61769;BME280;47669;48.712;9.016;2023-11-19T00:39:47;96546.50;;;6.98;100.00
61769;BME280;47669;48.712;9.016;2023-11-19T00:42:12;96547.19;;;7.07;100.00
61769;BME280;47669;48.712;9.016;2023-11-19T00:44:39;96529.84;;;7.12;100.00
61769;BME280;47669;48.712;9.016;2023-11-19T00:47:04;96528.66;;;7.15;100.00
61769;BME280;47669;48.712;9.016;2023-11-19T00:49:30;96538.63;;;7.20;100.00
61769;BME280;47669;48.712;9.016;2023-11-19T00:51:57;96534.81;;;7.22;100.00
61769;BME280;47669;48.712;9.016;2023-11-19T00:54:24;96530.97;;;7.25;100.00
61769;BME280;47669;48.712;9.016;2023-11-19T00:56:50;96521.91;;;7.27;100.00
61769;BME280;47669;48.712;9.016;2023-11-19T00:59:17;96524.56;;;7.34;100.00
61769;BME280;47669;48.712;9.016;2023-11-19T01:01:42;96521.31;;;7.32;100.00
61769;BME280;47669;48.712;9.016;2023-11-19T01:04:08;96519.00;;;7.44;100.00
61769;BME280;47669;48.712;9.016;2023-11-19T01:06:34;96510.53;;;7.48;100.00
61769;BME280;47669;48.712;9.016;2023-11-19T01:08:59;96520.88;;;7.50;100.00
61769;BME280;47669;48.712;9.016;2023-11-19T01:11:25;96516.09;;;7.60;100.00
61769;BME280;47669;48.712;9.016;2023-11-19T01:13:51;96515.50;;;7.65;100.00
61769;BME280;47669;48.712;9.016;2023-11-19T01:16:18;96523.19;;;7.66;100.00
61769;BME280;47669;48.712;9.016;2023-11-19T01:18:44;96515.69;;;7.63;100.00
61769;BME280;47669;48.712;9.016;2023-11-19T01:21:09;96511.03;;;7.65;100.00
61769;BME280;47669;48.712;9.016;2023-11-19T01:23:35;96508.88;;;7.75;100.00
61769;BME280;47669;48.712;9.016;2023-11-19T01:26:00;96501.78;;;7.76;100.00
61769;BME280;47669;48.712;9.016;2023-11-19T01:28:26;96496.53;;;7.76;100.00
61769;BME280;47669;48.712;9.016;2023-11-19T01:30:51;96493.56;;;7.86;100.00
61769;BME280;47669;48.712;9.016;2023-11-19T01:33:17;96500.41;;;7.80;100.00
61769;BME280;47669;48.712;9.016;2023-11-19T01:35:42;96499.41;;;7.81;100.00
61769;BME280;47669;48.712;9.016;2023-11-19T01:38:07;96487.50;;;7.85;100.00
61769;BME280;47669;48.712;9.016;2023-11-19T01:40:36;96491.94;;;7.85;100.00
61769;BME280;47669;48.712;9.016;2023-11-19T01:43:02;96504.09;;;7.86;100.00
61769;BME280;47669;48.712;9.016;2023-11-19T01:45:28;96497.81;;;7.87;100.00
61769;BME280;47669;48.712;9.016;2023-11-19T01:47:55;96503.69;;;7.89;100.00
61769;BME280;47669;48.712;9.016;2023-11-19T01:50:21;96495.81;;;7.95;100.00
61769;BME280;47669;48.712;9.016;2023-11-19T01:52:46;96497.84;;;7.93;100.00
61769;BME280;47669;48.712;9.016;2023-11-19T01:55:12;96497.03;;;7.93;100.00
61769;BME280;47669;48.712;9.016;2023-11-19T01:57:38;96487.31;;;7.93;100.00
61769;BME280;47669;48.712;9.016;2023-11-19T02:00:06;96493.19;;;7.95;100.00
61769;BME280;47669;48.712;9.016;2023-11-19T02:02:36;96484.91;;;7.92;100.00
61769;BME280;47669;48.712;9.016;2023-11-19T02:05:01;96484.31;;;7.97;100.00
61769;BME280;47669;48.712;9.016;2023-11-19T02:07:27;96483.66;;;7.88;100.00
61769;BME280;47669;48.712;9.016;2023-11-19T02:09:52;96491.19;;;7.98;100.00
61769;BME280;47669;48.712;9.016;2023-11-19T02:12:17;96484.94;;;7.99;100.00
61769;BME280;47669;48.712;9.016;2023-11-19T02:14:43;96483.09;;;7.99;100.00
61769;BME280;47669;48.712;9.016;2023-11-19T02:17:28;96477.84;;;7.99;100.00
61769;BME280;47669;48.712;9.016;2023-11-19T02:19:54;96483.94;;;8.06;100.00
61769;BME280;47669;48.712;9.016;2023-11-19T02:22:19;96478.47;;;8.08;100.00
61769;BME280;47669;48.712;9.016;2023-11-19T02:24:46;96476.47;;;8.10;100.00
61769;BME280;47669;48.712;9.016;2023-11-19T02:27:21;96465.34;;;8.14;100.00
61769;BME280;47669;48.712;9.016;2023-11-19T02:29:49;96467.16;;;8.14;100.00
61769;BME280;47669;48.712;9.016;2023-11-19T02:32:15;96469.19;;;8.19;100.00
61769;BME280;47669;48.712;9.016;2023-11-19T02:34:40;96471.66;;;8.20;100.00
61769;BME280;47669;48.712;9.016;2023-11-19T02:37:06;96468.00;;;8.21;100.00
61769;BME280;47669;48.712;9.016;2023-11-19T02:39:31;96471.03;;;8.18;100.00
61769;BME280;47669;48.712;9.016;2023-11-19T02:41:56;96465.56;;;8.13;100.00
61769;BME280;47669;48.712;9.016;2023-11-19T02:44:22;96467.41;;;8.19;100.00
61769;BME280;47669;48.712;9.016;2023-11-19T02:46:47;96475.31;;;8.19;100.00
61769;BME280;47669;48.712;9.016;2023-11-19T02:49:14;96474.69;;;8.24;100.00
61769;BME280;47669;48.712;9.016;2023-11-19T02:51:39;96479.75;;;8.25;100.00
61769;BME280;47669;48.712;9.016;2023-11-19T02:54:04;96473.69;;;8.25;100.00
61769;BME280;47669;48.712;9.016;2023-11-19T02:56:30;96464.19;;;8.30;100.00
61769;BME280;47669;48.712;9.016;2023-11-19T02:59:00;96464.19;;;8.30;100.00
61769;BME280;47669;48.712;9.016;2023-11-19T03:01:28;96457.09;;;8.31;100.00
61769;BME280;47669;48.712;9.016;2023-11-19T03:03:59;96464.38;;;8.29;100.00
61769;BME280;47669;48.712;9.016;2023-11-19T03:06:27;96469.25;;;8.32;100.00
61769;BME280;47669;48.712;9.016;2023-11-19T03:08:56;96473.69;;;8.31;100.00
61769;BME280;47669;48.712;9.016;2023-11-19T03:11:22;96470.88;;;8.33;100.00
61769;BME280;47669;48.712;9.016;2023-11-19T03:13:47;96471.50;;;8.35;100.00
61769;BME280;47669;48.712;9.016;2023-11-19T03:16:13;96476.34;;;8.31;100.00
61769;BME280;47669;48.712;9.016;2023-11-19T03:18:39;96477.16;;;8.32;100.00
61769;BME280;47669;48.712;9.016;2023-11-19T03:21:07;96484.47;;;8.36;100.00
61769;BME280;47669;48.712;9.016;2023-11-19T03:23:33;96469.66;;;8.35;100.00
61769;BME280;47669;48.712;9.016;2023-11-19T03:25:59;96467.66;;;8.38;100.00
61769;BME280;47669;48.712;9.016;2023-11-19T03:28:24;96473.94;;;8.36;100.00
61769;BME280;47669;48.712;9.016;2023-11-19T03:30:49;96468.66;;;8.36;100.00
61769;BME280;47669;48.712;9.016;2023-11-19T03:33:15;96470.28;;;8.38;100.00
61769;BME280;47669;48.712;9.016;2023-11-19T03:35:40;96474.53;;;8.39;100.00
61769;BME280;47669;48.712;9.016;2023-11-19T03:38:06;96473.72;;;8.38;100.00
61769;BME280;47669;48.712;9.016;2023-11-19T03:40:31;96469.25;;;8.32;100.00
61769;BME280;47669;48.712;9.016;2023-11-19T03:42:57;96457.09;;;8.31;100.00
61769;BME280;47669;48.712;9.016;2023-11-19T03:45:23;96456.09;;;8.32;100.00
61769;BME280;47669;48.712;9.016;2023-11-19T03:47:48;96457.91;;;8.31;100.00
61769;BME280;47669;48.712;9.016;2023-11-19T03:50:15;96464.38;;;8.29;100.00
61769;BME280;47669;48.712;9.016;2023-11-19T03:52:40;96463.38;;;8.30;100.00
61769;BME280;47669;48.712;9.016;2023-11-19T03:55:06;96454.28;;;8.32;100.00
61769;BME280;47669;48.712;9.016;2023-11-19T03:57:33;96456.72;;;8.34;100.00
61769;BME280;47669;48.712;9.016;2023-11-19T03:59:58;96441.53;;;8.36;100.00
61769;BME280;47669;48.712;9.016;2023-11-19T04:02:24;96454.88;;;8.34;100.00
61769;BME280;47669;48.712;9.016;2023-11-19T04:04:52;96446.63;;;8.44;100.00
61769;BME280;47669;48.712;9.016;2023-11-19T04:07:18;96436.91;;;8.45;100.00
61769;BME280;47669;48.712;9.016;2023-11-19T04:09:43;96441.34;;;8.44;100.00
61769;BME280;47669;48.712;9.016;2023-11-19T04:12:08;96459.41;;;8.47;100.00
61769;BME280;47669;48.712;9.016;2023-11-19T04:14:33;96460.81;;;8.50;100.00
61769;BME280;47669;48.712;9.016;2023-11-19T04:16:59;96470.56;;;8.56;100.00
61769;BME280;47669;48.712;9.016;2023-11-19T04:19:24;96460.84;;;8.63;100.00
61769;BME280;47669;48.712;9.016;2023-11-19T04:21:49;96464.50;;;8.62;100.00
61769;BME280;47669;48.712;9.016;2023-11-19T04:24:15;96459.66;;;8.66;100.00
61769;BME280;47669;48.712;9.016;2023-11-19T04:26:41;96457.22;;;8.64;100.00
61769;BME280;47669;48.712;9.016;2023-11-19T04:29:09;96465.13;;;8.64;100.00
61769;BME280;47669;48.712;9.016;2023-11-19T04:31:34;96466.53;;;8.67;100.00
61769;BME280;47669;48.712;9.016;2023-11-19T04:34:00;96461.69;;;8.70;100.00
61769;BME280;47669;48.712;9.016;2023-11-19T04:36:25;96462.91;;;8.74;100.00
61769;BME280;47669;48.712;9.016;2023-11-19T04:38:50;96471.00;;;8.73;100.00
61769;BME280;47669;48.712;9.016;2023-11-19T04:41:16;96461.88;;;8.75;100.00
61769;BME280;47669;48.712;9.016;2023-11-19T04:43:41;96464.31;;;8.77;100.00
61769;BME280;47669;48.712;9.016;2023-11-19T04:46:06;96465.97;;;8.85;100.00
61769;BME280;47669;48.712;9.016;2023-11-19T04:48:32;96464.94;;;8.86;100.00
61769;BME280;47669;48.712;9.016;2023-11-19T04:50:57;96474.88;;;8.84;100.00
61769;BME280;47669;48.712;9.016;2023-11-19T04:53:23;96477.31;;;8.85;100.00
61769;BME280;47669;48.712;9.016;2023-11-19T04:55:48;96471.44;;;8.83;100.00
61769;BME280;47669;48.712;9.016;2023-11-19T04:58:13;96470.41;;;8.84;100.00
61769;BME280;47669;48.712;9.016;2023-11-19T05:00:39;96472.66;;;8.87;100.00
61769;BME280;47669;48.712;9.016;2023-11-19T05:03:04;96468.00;;;8.89;100.00
61769;BME280;47669;48.712;9.016;2023-11-19T05:05:29;96468.19;;;8.94;100.00
61769;BME280;47669;48.712;9.016;2023-11-19T05:07:55;96473.44;;;8.94;100.00
61769;BME280;47669;48.712;9.016;2023-11-19T05:10:20;96465.53;;;8.94;100.00
61769;BME280;47669;48.712;9.016;2023-11-19T05:12:46;96464.53;;;9.02;100.00
61769;BME280;47669;48.712;9.016;2023-11-19T05:15:11;96474.06;;;9.03;100.00
61769;BME280;47669;48.712;9.016;2023-11-19T05:17:37;96466.56;;;9.00;100.00
61769;BME280;47669;48.712;9.016;2023-11-19T05:20:02;96467.78;;;8.98;100.00
61769;BME280;47669;48.712;9.016;2023-11-19T05:22:28;96460.06;;;9.03;100.00
61769;BME280;47669;48.712;9.016;2023-11-19T05:24:53;96470.44;;;9.04;100.00
61769;BME280;47669;48.712;9.016;2023-11-19T05:27:19;96472.03;;;9.05;100.00
61769;BME280;47669;48.712;9.016;2023-11-19T05:29:44;96474.28;;;9.08;100.00
61769;BME280;47669;48.712;9.016;2023-11-19T05:32:10;96476.69;;;9.10;100.00
61769;BME280;47669;48.712;9.016;2023-11-19T05:34:35;96471.22;;;9.11;100.00
61769;BME280;47669;48.712;9.016;2023-11-19T05:37:00;96471.22;;;9.11;100.00
61769;BME280;47669;48.712;9.016;2023-11-19T05:39:26;96465.34;;;9.09;100.00
61769;BME280;47669;48.712;9.016;2023-11-19T05:41:51;96462.94;;;9.14;100.00
61769;BME280;47669;48.712;9.016;2023-11-19T05:44:17;96464.94;;;9.19;100.00
61769;BME280;47669;48.712;9.016;2023-11-19T05:46:42;96459.06;;;9.17;100.00
61769;BME280;47669;48.712;9.016;2023-11-19T05:49:11;96465.16;;;9.17;100.00
61769;BME280;47669;48.712;9.016;2023-11-19T05:51:39;96464.16;;;9.19;100.00
61769;BME280;47669;48.712;9.016;2023-11-19T05:54:08;96467.78;;;9.17;100.00
61769;BME280;47669;48.712;9.016;2023-11-19T05:56:35;96472.44;;;9.22;100.00
61769;BME280;47669;48.712;9.016;2023-11-19T05:59:00;96464.94;;;9.19;100.00
61769;BME280;47669;48.712;9.016;2023-11-19T06:01:28;96465.94;;;9.18;100.00
61769;BME280;47669;48.712;9.016;2023-11-19T06:03:54;96476.09;;;9.21;100.00
61769;BME280;47669;48.712;9.016;2023-11-19T06:06:19;96466.56;;;9.20;100.00
61769;BME280;47669;48.712;9.016;2023-11-19T06:08:45;96470.41;;;9.17;100.00
61769;BME280;47669;48.712;9.016;2023-11-19T06:11:11;96470.00;;;9.21;100.00
61769;BME280;47669;48.712;9.016;2023-11-19T06:13:43;96476.50;;;9.18;100.00
61769;BME280;47669;48.712;9.016;2023-11-19T06:16:08;96470.84;;;9.21;100.00
61769;BME280;47669;48.712;9.016;2023-11-19T06:18:34;96474.47;;;9.20;100.00
61769;BME280;47669;48.712;9.016;2023-11-19T06:20:59;96468.59;;;9.18;100.00
61769;BME280;47669;48.712;9.016;2023-11-19T06:23:24;96478.75;;;9.14;100.00
61769;BME280;47669;48.712;9.016;2023-11-19T06:25:49;96476.72;;;9.16;100.00
61769;BME280;47669;48.712;9.016;2023-11-19T06:28:15;96476.50;;;9.18;100.00
61769;BME280;47669;48.712;9.016;2023-11-19T06:30:40;96469.00;;;9.22;100.00
61769;BME280;47669;48.712;9.016;2023-11-19T06:33:06;96471.22;;;9.25;100.00
61769;BME280;47669;48.712;9.016;2023-11-19T06:35:32;96468.81;;;9.23;100.00
61769;BME280;47669;48.712;9.016;2023-11-19T06:38:04;96471.63;;;9.22;100.00
61769;BME280;47669;48.712;9.016;2023-11-19T06:40:30;96469.59;;;9.30;100.00
61769;BME280;47669;48.712;9.016;2023-11-19T06:42:55;96468.59;;;9.31;100.00
61769;BME280;47669;48.712;9.016;2023-11-19T06:45:21;96471.84;;;9.33;100.00
61769;BME280;47669;48.712;9.016;2023-11-19T06:47:47;96469.78;;;9.35;100.00
61769;BME280;47669;48.712;9.016;2023-11-19T06:50:12;96477.50;;;9.37;100.00
61769;BME280;47669;48.712;9.016;2023-11-19T06:52:37;96484.00;;;9.41;100.00
61769;BME280;47669;48.712;9.016;2023-11-19T06:55:03;96484.78;;;9.42;100.00
61769;BME280;47669;48.712;9.016;2023-11-19T06:57:29;96489.69;;;9.38;100.00
61769;BME280;47669;48.712;9.016;2023-11-19T06:59:56;96481.56;;;9.33;100.00
61769;BME280;47669;48.712;9.016;2023-11-19T07:02:22;96484.78;;;9.42;100.00
61769;BME280;47669;48.712;9.016;2023-11-19T07:04:47;96490.28;;;9.40;100.00
61769;BME280;47669;48.712;9.016;2023-11-19T07:07:13;96487.84;;;9.38;100.00
61769;BME280;47669;48.712;9.016;2023-11-19T07:09:40;96488.06;;;9.37;100.00
61769;BME280;47669;48.712;9.016;2023-11-19T07:12:06;96478.53;;;9.43;100.00
61769;BME280;47669;48.712;9.016;2023-11-19T07:14:36;96482.97;;;9.49;100.00
61769;BME280;47669;48.712;9.016;2023-11-19T07:17:02;96487.22;;;9.56;100.00
61769;BME280;47669;48.712;9.016;2023-11-19T07:19:33;96505.50;;;9.51;100.00
61769;BME280;47669;48.712;9.016;2023-11-19T07:22:03;96512.78;;;9.63;100.00
61769;BME280;47669;48.712;9.016;2023-11-19T07:24:38;96498.78;;;9.55;100.00
61769;BME280;47669;48.712;9.016;2023-11-19T07:27:18;96504.28;;;9.54;100.00
61769;BME280;47669;48.712;9.016;2023-11-19T07:29:45;96511.97;;;9.62;100.00
61769;BME280;47669;48.712;9.016;2023-11-19T07:32:11;96516.44;;;9.62;100.00
61769;BME280;47669;48.712;9.016;2023-11-19T07:34:45;96519.09;;;9.62;100.00
61769;BME280;47669;48.712;9.016;2023-11-19T07:37:13;96518.28;;;9.61;100.00
61769;BME280;47669;48.712;9.016;2023-11-19T07:39:42;96524.56;;;9.60;100.00
61769;BME280;47669;48.712;9.016;2023-11-19T07:42:14;96521.31;;;9.58;100.00
61769;BME280;47669;48.712;9.016;2023-11-19T07:44:57;96524.75;;;9.58;100.00
61769;BME280;47669;48.712;9.016;2023-11-19T07:47:24;96522.94;;;9.59;100.00
61769;BME280;47669;48.712;9.016;2023-11-19T07:49:53;96524.56;;;9.60;100.00
61769;BME280;47669;48.712;9.016;2023-11-19T07:52:28;96527.19;;;9.60;100.00
61769;BME280;47669;48.712;9.016;2023-11-19T07:54:54;96526.59;;;9.58;100.00
61769;BME280;47669;48.712;9.016;2023-11-19T07:57:19;96529.03;;;9.60;100.00
61769;BME280;47669;48.712;9.016;2023-11-19T07:59:52;96525.78;;;9.64;100.00
61769;BME280;47669;48.712;9.016;2023-11-19T08:02:19;96519.06;;;9.68;100.00
61769;BME280;47669;48.712;9.016;2023-11-19T08:04:45;96533.47;;;9.72;100.00
61769;BME280;47669;48.712;9.016;2023-11-19T08:07:14;96524.94;;;9.77;100.00
61769;BME280;47669;48.712;9.016;2023-11-19T08:09:42;96540.97;;;9.75;100.00
61769;BME280;47669;48.712;9.016;2023-11-19T08:12:12;96526.56;;;9.85;100.00
61769;BME280;47669;48.712;9.016;2023-11-19T08:14:43;96523.72;;;9.79;100.00
61769;BME280;47669;48.712;9.016;2023-11-19T08:17:09;96526.97;;;9.82;100.00
61769;BME280;47669;48.712;9.016;2023-11-19T08:19:38;96531.25;;;9.83;100.00
61769;BME280;47669;48.712;9.016;2023-11-19T08:22:06;96519.84;;;9.95;100.00
61769;BME280;47669;48.712;9.016;2023-11-19T08:24:32;96519.22;;;10.00;100.00
61769;BME280;47669;48.712;9.016;2023-11-19T08:27:06;96527.31;;;10.05;100.00
61769;BME280;47669;48.712;9.016;2023-11-19T08:29:32;96525.69;;;10.11;100.00
61769;BME280;47669;48.712;9.016;2023-11-19T08:32:15;96525.03;;;10.22;100.00
61769;BME280;47669;48.712;9.016;2023-11-19T08:34:43;96537.63;;;10.27;100.00
61769;BME280;47669;48.712;9.016;2023-11-19T08:37:11;96536.59;;;10.28;100.00
61769;BME280;47669;48.712;9.016;2023-11-19T08:39:47;96527.47;;;10.24;100.00
61769;BME280;47669;48.712;9.016;2023-11-19T08:42:19;96536.63;;;10.21;100.00
61769;BME280;47669;48.712;9.016;2023-11-19T08:44:56;96534.38;;;10.25;100.00
61769;BME280;47669;48.712;9.016;2023-11-19T08:47:24;96532.94;;;10.29;100.00
61769;BME280;47669;48.712;9.016;2023-11-19T08:49:54;96540.03;;;10.35;100.00
61769;BME280;47669;48.712;9.016;2023-11-19T08:52:27;96533.47;;;10.57;100.00
61769;BME280;47669;48.712;9.016;2023-11-19T08:55:15;96528.59;;;10.54;100.00
61769;BME280;47669;48.712;9.016;2023-11-19T08:57:41;96518.53;;;10.76;100.00
61769;BME280;47669;48.712;9.016;2023-11-19T09:00:15;96527.66;;;10.80;100.00
61769;BME280;47669;48.712;9.016;2023-11-19T09:02:43;96525.22;;;10.79;100.00
61769;BME280;47669;48.712;9.016;2023-11-19T09:05:12;96533.19;;;10.72;100.00
61769;BME280;47669;48.712;9.016;2023-11-19T09:07:40;96529.91;;;10.77;100.00
61769;BME280;47669;48.712;9.016;2023-11-19T09:10:12;96536.34;;;10.88;100.00
61769;BME280;47669;48.712;9.016;2023-11-19T09:12:42;96527.75;;;10.99;100.00
61769;BME280;47669;48.712;9.016;2023-11-19T09:15:10;96524.06;;;11.00;100.00
61769;BME280;47669;48.712;9.016;2023-11-19T09:17:47;96537.03;;;11.08;100.00
61769;BME280;47669;48.712;9.016;2023-11-19T09:20:15;96536.56;;;11.18;100.00
61769;BME280;47669;48.712;9.016;2023-11-19T09:22:46;96530.63;;;11.23;98.86
61769;BME280;47669;48.712;9.016;2023-11-19T09:25:12;96535.28;;;11.27;99.85
61769;BME280;47669;48.712;9.016;2023-11-19T09:27:42;96534.03;;;11.30;98.24
61769;BME280;47669;48.712;9.016;2023-11-19T09:30:11;96546.53;;;11.48;98.49
61769;BME280;47669;48.712;9.016;2023-11-19T09:32:41;96539.97;;;11.50;97.84
61769;BME280;47669;48.712;9.016;2023-11-19T09:35:09;96534.44;;;11.58;97.74
61769;BME280;47669;48.712;9.016;2023-11-19T09:37:38;96541.13;;;11.61;98.88
61769;BME280;47669;48.712;9.016;2023-11-19T09:40:05;96547.91;;;11.50;98.62
61769;BME280;47669;48.712;9.016;2023-11-19T09:42:48;96542.75;;;11.62;97.72
61769;BME280;47669;48.712;9.016;2023-11-19T09:45:17;96544.09;;;11.71;97.34
61769;BME280;47669;48.712;9.016;2023-11-19T09:47:48;96536.22;;;11.65;97.08
61769;BME280;47669;48.712;9.016;2023-11-19T09:50:19;96540.03;;;11.69;97.31
61769;BME280;47669;48.712;9.016;2023-11-19T09:52:46;96517.06;;;11.88;96.68
61769;BME280;47669;48.712;9.016;2023-11-19T09:55:12;96524.06;;;12.19;96.28
61769;BME280;47669;48.712;9.016;2023-11-19T09:57:41;96520.75;;;12.05;96.65
61769;BME280;47669;48.712;9.016;2023-11-19T10:00:09;96524.94;;;11.94;97.10
61769;BME280;47669;48.712;9.016;2023-11-19T10:02:39;96523.31;;;11.93;97.18
61769;BME280;47669;48.712;9.016;2023-11-19T10:05:09;96528.34;;;12.01;95.88
61769;BME280;47669;48.712;9.016;2023-11-19T10:07:35;96506.84;;;12.10;95.33
61769;BME280;47669;48.712;9.016;2023-11-19T10:10:07;96515.19;;;12.13;93.65
61769;BME280;47669;48.712;9.016;2023-11-19T10:12:33;96503.41;;;12.28;91.71
61769;BME280;47669;48.712;9.016;2023-11-19T10:14:59;96509.94;;;12.43;93.76
61769;BME280;47669;48.712;9.016;2023-11-19T10:17:29;96503.81;;;12.61;91.95
61769;BME280;47669;48.712;9.016;2023-11-19T10:19:57;96507.94;;;12.57;91.31
61769;BME280;47669;48.712;9.016;2023-11-19T10:22:23;96508.94;;;12.56;89.44
61769;BME280;47669;48.712;9.016;2023-11-19T10:24:50;96511.97;;;12.60;87.97
61769;BME280;47669;48.712;9.016;2023-11-19T10:27:26;96518.78;;;12.68;85.48
61769;BME280;47669;48.712;9.016;2023-11-19T10:29:59;96519.13;;;12.90;85.18
61769;BME280;47669;48.712;9.016;2023-11-19T10:32:27;96509.69;;;13.06;85.82
61769;BME280;47669;48.712;9.016;2023-11-19T10:35:04;96514.16;;;13.35;84.65
61769;BME280;47669;48.712;9.016;2023-11-19T10:37:35;96516.50;;;13.55;84.65
61769;BME280;47669;48.712;9.016;2023-11-19T10:40:05;96504.63;;;13.70;81.82
61769;BME280;47669;48.712;9.016;2023-11-19T10:42:35;96514.22;;;13.59;82.85
61769;BME280;47669;48.712;9.016;2023-11-19T10:45:26;96513.88;;;13.13;82.70
61769;BME280;47669;48.712;9.016;2023-11-19T10:48:25;96509.38;;;13.14;82.95
61769;BME280;47669;48.712;9.016;2023-11-19T10:50:46;96505.31;;;13.11;83.18
61769;BME280;47669;48.712;9.016;2023-11-19T10:53:18;96499.22;;;13.22;84.84
61769;BME280;47669;48.712;9.016;2023-11-19T10:55:50;96496.53;;;13.64;83.63
61769;BME280;47669;48.712;9.016;2023-11-19T10:58:19;96493.41;;;13.79;79.37
61769;BME280;47669;48.712;9.016;2023-11-19T11:00:51;96492.38;;;13.80;78.92
61769;BME280;47669;48.712;9.016;2023-11-19T11:03:21;96497.13;;;13.55;79.75
61769;BME280;47669;48.712;9.016;2023-11-19T11:05:51;96485.66;;;13.54;79.27
61769;BME280;47669;48.712;9.016;2023-11-19T11:08:18;96488.78;;;13.39;78.75
61769;BME280;47669;48.712;9.016;2023-11-19T11:10:56;96488.66;;;13.34;77.42
61769;BME280;47669;48.712;9.016;2023-11-19T11:13:25;96483.03;;;13.66;78.18
61769;BME280;47669;48.712;9.016;2023-11-19T11:16:07;96486.72;;;13.89;77.10
61769;BME280;47669;48.712;9.016;2023-11-19T11:18:36;96491.69;;;13.85;76.32
61769;BME280;47669;48.712;9.016;2023-11-19T11:21:05;96504.47;;;14.00;76.45
61769;BME280;47669;48.712;9.016;2023-11-19T11:23:56;96506.00;;;13.60;76.36
61769;BME280;47669;48.712;9.016;2023-11-19T11:39:33;96507.97;;;13.11;79.10
61769;BME280;47669;48.712;9.016;2023-11-19T11:50:22;96491.38;;;13.04;77.14
61769;BME280;47669;48.712;9.016;2023-11-19T11:55:36;96486.19;;;13.09;77.30
61769;BME280;47669;48.712;9.016;2023-11-19T11:58:05;96496.56;;;13.11;77.18
61769;BME280;47669;48.712;9.016;2023-11-19T12:00:32;96487.53;;;13.66;75.34
61769;BME280;47669;48.712;9.016;2023-11-19T12:03:01;96482.81;;;13.68;75.75
61769;BME280;47669;48.712;9.016;2023-11-19T12:05:28;96483.13;;;13.83;74.88
61769;BME280;47669;48.712;9.016;2023-11-19T12:08:00;96486.38;;;13.50;74.75
61769;BME280;47669;48.712;9.016;2023-11-19T12:10:30;96499.66;;;13.38;74.45
61769;BME280;47669;48.712;9.016;2023-11-19T12:13:01;96486.25;;;13.80;71.74
61769;BME280;47669;48.712;9.016;2023-11-19T12:15:32;96493.19;;;13.57;72.74
61769;BME280;47669;48.712;9.016;2023-11-19T12:18:01;96481.28;;;13.48;70.70
61769;BME280;47669;48.712;9.016;2023-11-19T12:20:27;96486.50;;;13.55;72.28
61769;BME280;47669;48.712;9.016;2023-11-19T12:23:04;96472.06;;;13.62;70.96
61769;BME280;47669;48.712;9.016;2023-11-19T12:25:34;96458.44;;;13.59;69.79
61769;BME280;47669;48.712;9.016;2023-11-19T12:28:00;96461.00;;;13.42;70.96
61769;BME280;47669;48.712;9.016;2023-11-19T12:30:31;96463.50;;;13.72;70.93
61769;BME280;47669;48.712;9.016;2023-11-19T12:32:57;96464.53;;;13.83;69.82
61769;BME280;47669;48.712;9.016;2023-11-19T12:35:23;96454.03;;;13.76;70.33
61769;BME280;47669;48.712;9.016;2023-11-19T12:37:50;96458.06;;;13.67;67.40
61769;BME280;47669;48.712;9.016;2023-11-19T12:40:24;96445.88;;;14.59;66.72
61769;BME280;47669;48.712;9.016;2023-11-19T12:42:51;96462.56;;;14.42;65.75
61769;BME280;47669;48.712;9.016;2023-11-19T12:45:17;96464.03;;;14.79;64.50
61769;BME280;47669;48.712;9.016;2023-11-19T12:47:47;96442.47;;;14.92;65.38
61769;BME280;47669;48.712;9.016;2023-11-19T12:50:14;96449.06;;;14.32;62.75
61769;BME280;47669;48.712;9.016;2023-11-19T12:52:39;96445.56;;;14.72;62.39
61769;BME280;47669;48.712;9.016;2023-11-19T12:55:24;96440.03;;;14.74;61.91
61769;BME280;47669;48.712;9.016;2023-11-19T12:57:49;96448.09;;;14.96;62.02
61769;BME280;47669;48.712;9.016;2023-11-19T13:00:22;96436.84;;;14.60;60.59
61769;BME280;47669;48.712;9.016;2023-11-19T13:02:50;96429.19;;;15.09;59.23
61769;BME280;47669;48.712;9.016;2023-11-19T13:05:27;96440.00;;;14.16;62.58
61769;BME280;47669;48.712;9.016;2023-11-19T13:08:18;96450.69;;;13.81;63.63
61769;BME280;47669;48.712;9.016;2023-11-19T13:10:53;96446.63;;;14.71;61.41
61769;BME280;47669;48.712;9.016;2023-11-19T13:13:21;96446.94;;;14.75;61.56
61769;BME280;47669;48.712;9.016;2023-11-19T13:15:46;96448.53;;;14.18;63.09
61769;BME280;47669;48.712;9.016;2023-11-19T13:18:12;96429.16;;;15.26;60.81
61769;BME280;47669;48.712;9.016;2023-11-19T13:20:38;96440.34;;;14.08;64.02
61769;BME280;47669;48.712;9.016;2023-11-19T13:23:04;96439.16;;;15.19;61.45
61769;BME280;47669;48.712;9.016;2023-11-19T13:25:31;96435.03;;;14.94;61.83
61769;BME280;47669;48.712;9.016;2023-11-19T13:27:57;96440.06;;;14.62;62.18